Huvudsida
METAR-TAF:

METAR-TAF

Flygplatser :

Skellefteå, Sverige

Skellefteå Airport

latitud: 64-38N, longitud: 021-05E, höjd: 49 m

Aktuellt väderrapport

Denna rapport gjordes för 36 minuter sedan, klockan 17:50 UTC
Vind 4 kt från syd, varierande mellan ost/sydost och sydväst
Temperatur 4°C
Fuktighet 75%
Tryck 1014 hPa
Sikt 10 km eller mer
Inga moln under 1 500 m eller inga cumulonimbus

METAR: ESNS 221750Z 17004KT 120V220 CAVOK 04/M00 Q1014

Tid: 20:26 (18:26 UTC)

Väderprognos

Denna rapport gjordes för 56 minuter sedan, klockan 17:30 UTC
Prognos gäller från 22 kl. 18 UTC till 22 kl. 22 UTC
Vind 5 kt från syd
Sikt 10 km eller mer
Inga moln under 1 500 m eller inga cumulonimbus

TAF: ESNS 221730Z 2218/2222 18005KT CAVOK

Aktuella väderrapporter och prognoser från 4000 flygplatser (METAR- och TAF-rapporter).

De tillgängliga stationerna syns som gula och röda prickar på kartan.

För musen över prickarna för att se namnen på stationerna.

Klicka sedan för att få väderrapporter och prognoser.

För att ändra kartan: Klicka på de gröna knapparna med ett svart kors på för att zooma in; den gröna knappen med ett streck på för att zooma ut; eller på de gröna pilarna för angränsande kartor.


METAR-TAF: